TimeCST,TemperatureF,Dew PointF,Humidity,Sea Level PressureIn,VisibilityMPH,Wind Direction,Wind SpeedMPH,Gust SpeedMPH,PrecipitationIn,Events,Conditions,WindDirDegrees,DateUTC
12:53 AM,14.0,6.1,71,30.26,10.0,SW,11.5,-,N/A,,Clear,230,2014-02-03 06:53:00
1:53 AM,14.0,6.1,71,30.26,10.0,WSW,10.4,-,N/A,,Clear,240,2014-02-03 07:53:00
2:53 AM,12.9,6.1,74,30.24,10.0,SSW,6.9,-,N/A,,Clear,200,2014-02-03 08:53:00
3:53 AM,10.0,3.9,76,30.24,10.0,SW,8.1,-,N/A,,Clear,220,2014-02-03 09:53:00
4:53 AM,10.9,5.0,77,30.24,10.0,SSW,9.2,-,N/A,,Clear,210,2014-02-03 10:53:00
5:53 AM,10.0,5.0,80,30.23,10.0,SSW,5.8,-,N/A,,Clear,200,2014-02-03 11:53:00
6:53 AM,12.0,5.0,73,30.24,10.0,SSW,6.9,-,N/A,,Mostly Cloudy,210,2014-02-03 12:53:00
7:53 AM,16.0,8.1,71,30.25,10.0,SSW,5.8,-,N/A,,Overcast,200,2014-02-03 13:53:00
8:53 AM,12.9,8.1,81,30.26,10.0,Calm,Calm,-,N/A,,Overcast,0,2014-02-03 14:53:00
9:53 AM,21.9,10.9,63,30.26,10.0,SSW,6.9,-,N/A,,Overcast,200,2014-02-03 15:53:00
10:53 AM,24.1,12.0,60,30.27,10.0,South,10.4,-,N/A,,Overcast,190,2014-02-03 16:53:00
11:53 AM,25.0,12.9,60,30.25,10.0,South,11.5,-,N/A,,Overcast,190,2014-02-03 17:53:00
12:53 PM,28.0,14.0,56,30.20,10.0,South,10.4,-,N/A,,Overcast,180,2014-02-03 18:53:00
1:53 PM,27.0,15.1,61,30.19,10.0,SSE,10.4,-,N/A,,Overcast,160,2014-02-03 19:53:00
2:53 PM,27.0,15.1,61,30.17,10.0,SE,9.2,-,N/A,,Overcast,140,2014-02-03 20:53:00
3:53 PM,27.0,14.0,58,30.18,10.0,SSE,11.5,-,N/A,,Overcast,150,2014-02-03 21:53:00
4:53 PM,27.0,15.1,61,30.17,10.0,SE,11.5,-,N/A,,Overcast,140,2014-02-03 22:53:00
5:06 PM,26.1,15.1,63,30.08,10.0,SE,11.5,-,N/A,,Overcast,140,2014-02-03 23:06:00
5:53 PM,26.1,16.0,66,30.18,9.0,SSE,9.2,-,0.00,,Overcast,150,2014-02-03 23:53:00
6:53 PM,25.0,15.1,66,30.20,9.0,SSE,5.8,-,0.00,Snow,Light Snow,160,2014-02-04 00:53:00
7:25 PM,25.0,16.0,69,30.13,10.0,SSE,5.8,-,0.00,,Overcast,150,2014-02-04 01:25:00
7:49 PM,24.8,15.8,69,30.13,10.0,SSE,8.1,-,0.00,,Overcast,150,2014-02-04 01:49:00
7:53 PM,25.0,15.1,66,30.21,10.0,SSE,6.9,-,0.00,,Overcast,160,2014-02-04 01:53:00
8:53 PM,25.0,15.1,66,30.22,10.0,SE,5.8,-,N/A,,Overcast,140,2014-02-04 02:53:00
9:16 PM,25.0,15.1,66,30.14,10.0,SE,4.6,-,N/A,,Overcast,130,2014-02-04 03:16:00
9:53 PM,25.0,14.0,63,30.24,10.0,ESE,3.5,-,N/A,,Overcast,110,2014-02-04 03:53:00
10:53 PM,24.1,15.1,69,30.24,10.0,ESE,3.5,-,N/A,,Overcast,110,2014-02-04 04:53:00
11:53 PM,24.1,15.1,69,30.24,10.0,East,3.5,-,N/A,,Overcast,80,2014-02-04 05:53:00